Laguepe — 9HAI9 — position and weather

sailwx.info

Track history (hours):
 
Tides and Currents Weather Stations Pressure Air Temp Water Temp Dewpoint Dewpoint Depression Visibility Wind Speed Wind Dir Waves Ship Positions

Laguepe

Last reported at 2015-May-01 17:33 UTC. Time now 2015-May-04 20:07 UTC.
Position N 43°21' E 004°58'.

Length 81 m; draft 3.2 m.

Type: Cargo ship. MMSI: 256681000.

Date/timePositionNaut miles runAvg speedWind from/ knotsBaromVisibWave heightAir tempDewpointWater temp
2015-May-01 17:33N 43°21' E 004°58'7 6.6
2015-May-01 16:33N 43°23' E 004°49'1 0.1
2015-May-01 09:31N 43°23' E 004°48'0 0.0
2015-May-01 08:04N 43°23' E 004°48'0 0.0
2015-May-01 02:06N 43°23' E 004°48'0 0.0
2015-May-01 01:04N 43°23' E 004°48'0 0.0
2015-Apr-30 17:11N 43°23' E 004°48'0 0.0
2015-Apr-30 16:22N 43°23' E 004°48'0 0.0
2015-Apr-30 14:27N 43°23' E 004°48'0 0.0
2015-Apr-30 13:28N 43°23' E 004°48'0 0.0
2015-Apr-30 11:14N 43°23' E 004°48'0 0.0
2015-Apr-30 05:32N 43°23' E 004°48'0 0.0
2015-Apr-29 22:18N 43°23' E 004°48'0 0.0
2015-Apr-29 21:27N 43°23' E 004°48'0 0.0
2015-Apr-29 19:19N 43°23' E 004°48'0 0.0
2015-Apr-29 18:22N 43°23' E 004°48'0 0.0
2015-Apr-29 17:33N 43°23' E 004°48'0 0.0
2015-Apr-29 16:32N 43°23' E 004°48'0 0.0
2015-Apr-29 14:31N 43°23' E 004°48'  
2015-Apr-25 18:12N 43°23' E 004°49'0 0.3
2015-Apr-25 17:28N 43°23' E 004°48'6 6.6
2015-Apr-25 16:33N 43°23' E 004°57'6 6.2
2015-Apr-25 15:33N 43°18' E 005°02'8 7.8
2015-Apr-25 14:32N 43°14' E 005°12'16 7.7
2015-Apr-25 12:29N 43°07' E 005°31'16 8.0
2015-Apr-25 10:31N 43°01' E 005°51'61 6.8
2015-Apr-25 01:33N 43°27' E 007°07'8 7.9
2015-Apr-25 00:33N 43°32' E 007°16'9 7.8
2015-Apr-24 23:27N 43°36' E 007°26'52 1.9
2015-Apr-23 19:33N 43°60' E 008°30'0 0.2
2015-Apr-23 18:33N 43°60' E 008°30'6 5.2
2015-Apr-23 17:25N 43°57' E 008°23'38 7.7
2015-Apr-23 12:30N 43°34' E 007°42'8 8.1
2015-Apr-23 11:33N 43°29' E 007°34'8 8.2
2015-Apr-23 10:33N 43°24' E 007°25'10 8.3
2015-Apr-23 09:19N 43°18' E 007°14'6 7.7
2015-Apr-23 08:33N 43°14' E 007°07'11 8.0
2015-Apr-23 07:11N 43°08' E 006°55'6 8.2
2015-Apr-23 06:29N 43°05' E 006°48'9 8.0
2015-Apr-23 05:22N 43°01' E 006°37'7 8.1
2015-Apr-23 04:28N 42°58' E 006°28'24 8.1
2015-Apr-23 01:30N 42°60' E 005°55'28 8.6
2015-Apr-22 22:11N 43°11' E 005°19'5 8.4
2015-Apr-22 21:33N 43°13' E 005°13'9 8.4
2015-Apr-22 20:32N 43°18' E 005°03'8 7.9
2015-Apr-22 19:33N 43°23' E 004°55'5 5.1
2015-Apr-22 18:33N 43°23' E 004°49'10 7.2
2015-Apr-22 17:09N 43°32' E 004°43'6 8.9
2015-Apr-22 16:31N 43°37' E 004°39'  
Track history (hours):
 
Tides and Currents Weather Stations Pressure Air Temp Water Temp Dewpoint Dewpoint Depression Visibility Wind Speed Wind Dir Waves Ship Positions

Laguepe

Last reported at 2015-May-01 17:33 UTC. Time now 2015-May-04 20:07 UTC.
Position N 43°21' E 004°58'.

Length 81 m; draft 3.2 m.

Type: Cargo ship. MMSI: 256681000.

Date/timePositionNaut miles runAvg speedWind from/ knotsBaromVisibWave heightAir tempDewpointWater temp
2015-May-01 17:33N 43°21' E 004°58'7 6.6
2015-May-01 16:33N 43°23' E 004°49'1 0.1
2015-May-01 09:31N 43°23' E 004°48'0 0.0
2015-May-01 08:04N 43°23' E 004°48'0 0.0
2015-May-01 02:06N 43°23' E 004°48'0 0.0
2015-May-01 01:04N 43°23' E 004°48'0 0.0
2015-Apr-30 17:11N 43°23' E 004°48'0 0.0
2015-Apr-30 16:22N 43°23' E 004°48'0 0.0
2015-Apr-30 14:27N 43°23' E 004°48'0 0.0
2015-Apr-30 13:28N 43°23' E 004°48'0 0.0
2015-Apr-30 11:14N 43°23' E 004°48'0 0.0
2015-Apr-30 05:32N 43°23' E 004°48'0 0.0
2015-Apr-29 22:18N 43°23' E 004°48'0 0.0
2015-Apr-29 21:27N 43°23' E 004°48'0 0.0
2015-Apr-29 19:19N 43°23' E 004°48'0 0.0
2015-Apr-29 18:22N 43°23' E 004°48'0 0.0
2015-Apr-29 17:33N 43°23' E 004°48'0 0.0
2015-Apr-29 16:32N 43°23' E 004°48'0 0.0
2015-Apr-29 14:31N 43°23' E 004°48'  
2015-Apr-25 18:12N 43°23' E 004°49'0 0.3
2015-Apr-25 17:28N 43°23' E 004°48'6 6.6
2015-Apr-25 16:33N 43°23' E 004°57'6 6.2
2015-Apr-25 15:33N 43°18' E 005°02'8 7.8
2015-Apr-25 14:32N 43°14' E 005°12'16 7.7
2015-Apr-25 12:29N 43°07' E 005°31'16 8.0
2015-Apr-25 10:31N 43°01' E 005°51'61 6.8
2015-Apr-25 01:33N 43°27' E 007°07'8 7.9
2015-Apr-25 00:33N 43°32' E 007°16'9 7.8
2015-Apr-24 23:27N 43°36' E 007°26'52 1.9
2015-Apr-23 19:33N 43°60' E 008°30'0 0.2
2015-Apr-23 18:33N 43°60' E 008°30'6 5.2
2015-Apr-23 17:25N 43°57' E 008°23'38 7.7
2015-Apr-23 12:30N 43°34' E 007°42'8 8.1
2015-Apr-23 11:33N 43°29' E 007°34'8 8.2
2015-Apr-23 10:33N 43°24' E 007°25'10 8.3
2015-Apr-23 09:19N 43°18' E 007°14'6 7.7
2015-Apr-23 08:33N 43°14' E 007°07'11 8.0
2015-Apr-23 07:11N 43°08' E 006°55'6 8.2
2015-Apr-23 06:29N 43°05' E 006°48'9 8.0
2015-Apr-23 05:22N 43°01' E 006°37'7 8.1
2015-Apr-23 04:28N 42°58' E 006°28'24 8.1
2015-Apr-23 01:30N 42°60' E 005°55'28 8.6
2015-Apr-22 22:11N 43°11' E 005°19'5 8.4
2015-Apr-22 21:33N 43°13' E 005°13'9 8.4
2015-Apr-22 20:32N 43°18' E 005°03'8 7.9
2015-Apr-22 19:33N 43°23' E 004°55'5 5.1
2015-Apr-22 18:33N 43°23' E 004°49'10 7.2
2015-Apr-22 17:09N 43°32' E 004°43'6 8.9
2015-Apr-22 16:31N 43°37' E 004°39'  

Dump ship's entire track history